Aviation Digital Data Service (ADDS)

Output produced by TAFs form (2114 UTC 20 November 2017)
found at http://www.aviationweather.gov/adds/tafs/
 
KEAU 201720Z 2018/2118 17010KT P6SM BKN250 
     FM202300 20009KT P6SM BKN200 
     FM210400 23009KT P6SM SCT250 
     FM210900 28014G22KT P6SM BKN050
       
KRNH 201720Z 2018/2118 19010KT P6SM BKN200 
     FM210100 22009KT P6SM BKN200 
     FM210500 26011KT P6SM SCT250 
     FM210900 29016G25KT P6SM BKN050
       
KMSP 202100Z 2021/2124 21008KT P6SM BKN150 
     FM210100 22010KT P6SM BKN200 
     FM210400 27011KT P6SM SCT250 
     FM210800 29015G22KT P6SM BKN050 
     FM211200 30019G28KT P6SM OVC050 
     FM211700 31021G30KT P6SM SCT150